createdAt,value
2017-08-10T00:00:19.930Z,18.4
2017-08-10T00:01:21.480Z,18.4
2017-08-10T00:02:43.097Z,18.4
2017-08-10T00:03:44.508Z,18.3
2017-08-10T00:05:06.151Z,18.2
2017-08-10T00:06:07.569Z,18.3
2017-08-10T00:07:29.067Z,18.2
2017-08-10T00:08:30.478Z,18.2
2017-08-10T00:09:52.194Z,18.1
2017-08-10T00:10:53.675Z,18.0
2017-08-10T00:12:15.273Z,18.1
2017-08-10T00:13:16.774Z,18.0
2017-08-10T00:14:38.385Z,18.1
2017-08-10T00:15:39.796Z,18.1
2017-08-10T00:17:01.370Z,18.0
2017-08-10T00:18:02.948Z,17.9
2017-08-10T00:19:24.445Z,18.0
2017-08-10T00:20:25.854Z,18.0
2017-08-10T00:21:47.374Z,18.0
2017-08-10T00:22:48.880Z,18.0
2017-08-10T00:24:10.381Z,18.0
2017-08-10T00:25:11.791Z,18.1
2017-08-10T00:26:33.310Z,18.0
2017-08-10T00:27:34.777Z,18.1
2017-08-10T00:28:56.306Z,18.0
2017-08-10T00:29:57.728Z,18.0
2017-08-10T00:31:19.251Z,18.0
2017-08-10T00:32:20.662Z,18.0
2017-08-10T00:33:42.166Z,18.1
2017-08-10T00:34:43.575Z,18.1
2017-08-10T00:36:05.097Z,18.1
2017-08-10T00:37:06.507Z,18.0
2017-08-10T00:38:28.003Z,17.9
2017-08-10T00:39:29.416Z,18.0
2017-08-10T00:40:50.937Z,18.0
2017-08-10T00:41:52.345Z,17.8
2017-08-10T00:43:13.890Z,17.9
2017-08-10T00:44:15.298Z,17.9
2017-08-10T00:45:36.816Z,18.0
2017-08-10T00:46:38.277Z,18.0
2017-08-10T00:47:59.807Z,17.9
2017-08-10T00:49:01.225Z,18.0
2017-08-10T00:50:22.780Z,17.9
2017-08-10T00:51:24.237Z,18.0
2017-08-10T00:52:45.741Z,18.0
2017-08-10T00:53:47.152Z,18.0
2017-08-10T00:55:08.648Z,18.0
2017-08-10T00:56:10.058Z,18.0
2017-08-10T00:57:31.580Z,18.0
2017-08-10T00:58:32.991Z,17.9
2017-08-10T00:59:54.489Z,18.0
2017-08-10T01:00:55.898Z,18.0
2017-08-10T01:02:17.411Z,18.1
2017-08-10T01:03:18.823Z,18.2
2017-08-10T01:04:40.319Z,18.2
2017-08-10T01:05:41.731Z,18.1
2017-08-10T01:07:03.473Z,18.2
2017-08-10T01:08:04.881Z,18.2
2017-08-10T01:09:26.380Z,18.2
2017-08-10T01:10:27.923Z,18.2
2017-08-10T01:11:49.431Z,18.2
2017-08-10T01:12:50.843Z,18.1
2017-08-10T01:14:12.340Z,18.1
2017-08-10T01:15:13.748Z,18.0
2017-08-10T01:16:35.269Z,18.0
2017-08-10T01:17:36.680Z,18.1
2017-08-10T01:18:58.177Z,18.1
2017-08-10T01:19:59.604Z,17.9
2017-08-10T01:21:21.122Z,18.0
2017-08-10T01:22:22.532Z,18.0
2017-08-10T01:23:44.031Z,18.0
2017-08-10T01:24:45.440Z,18.0
2017-08-10T01:26:06.962Z,17.9
2017-08-10T01:27:08.371Z,18.0
2017-08-10T01:28:29.869Z,17.9
2017-08-10T01:29:31.280Z,17.8
2017-08-10T01:30:52.797Z,17.8
2017-08-10T01:31:54.208Z,17.8
2017-08-10T01:33:15.703Z,17.8
2017-08-10T01:34:17.113Z,17.7
2017-08-10T01:35:38.631Z,17.8
2017-08-10T01:36:40.040Z,17.8
2017-08-10T01:38:01.539Z,17.8
2017-08-10T01:39:02.949Z,17.8
2017-08-10T01:40:24.445Z,17.9
2017-08-10T01:41:25.855Z,17.8
2017-08-10T01:42:47.370Z,17.7
2017-08-10T01:43:48.781Z,17.7
2017-08-10T01:45:10.278Z,17.7
2017-08-10T01:46:11.687Z,17.7
2017-08-10T01:47:33.204Z,17.7
2017-08-10T01:48:34.614Z,17.8
2017-08-10T01:49:56.108Z,17.7
2017-08-10T01:50:57.516Z,17.7
2017-08-10T01:52:19.040Z,17.6
2017-08-10T01:53:20.451Z,17.6
2017-08-10T01:54:41.945Z,17.6
2017-08-10T01:55:43.355Z,17.5
2017-08-10T01:57:04.870Z,17.6
2017-08-10T01:58:06.280Z,17.4
2017-08-10T01:59:27.776Z,17.4
2017-08-10T02:00:29.188Z,17.5
2017-08-10T02:01:50.703Z,17.4
2017-08-10T02:02:52.114Z,17.4
2017-08-10T02:04:13.612Z,17.4
2017-08-10T02:05:15.022Z,17.4
2017-08-10T02:06:36.545Z,17.4
2017-08-10T02:07:37.955Z,17.4
2017-08-10T02:08:59.451Z,17.4
2017-08-10T02:10:00.863Z,17.5
2017-08-10T02:11:22.379Z,17.6
2017-08-10T02:12:23.791Z,17.4
2017-08-10T02:13:45.286Z,17.4
2017-08-10T02:14:46.695Z,17.5
2017-08-10T02:16:08.220Z,17.4
2017-08-10T02:17:09.629Z,17.5
2017-08-10T02:18:31.126Z,17.5
2017-08-10T02:19:32.534Z,17.4
2017-08-10T02:20:54.049Z,17.4
2017-08-10T02:21:55.459Z,17.4
2017-08-10T02:23:16.958Z,17.5
2017-08-10T02:24:18.366Z,17.4
2017-08-10T02:25:39.880Z,17.6
2017-08-10T02:26:41.290Z,17.6
2017-08-10T02:28:02.791Z,17.7
2017-08-10T02:29:04.202Z,17.6
2017-08-10T02:30:25.701Z,17.6
2017-08-10T02:31:27.110Z,17.5
2017-08-10T02:32:48.626Z,17.4
2017-08-10T02:33:50.036Z,17.4
2017-08-10T02:35:11.534Z,17.4
2017-08-10T02:36:12.943Z,17.4
2017-08-10T02:37:34.456Z,17.3
2017-08-10T02:38:35.868Z,17.3
2017-08-10T02:39:57.366Z,17.3
2017-08-10T02:40:58.777Z,17.3
2017-08-10T02:42:20.294Z,17.3
2017-08-10T02:43:21.707Z,17.2
2017-08-10T02:44:43.197Z,17.2
2017-08-10T02:45:44.607Z,17.3
2017-08-10T02:47:06.125Z,17.3
2017-08-10T02:48:07.538Z,17.3
2017-08-10T02:49:29.038Z,17.3
2017-08-10T02:50:30.446Z,17.2
2017-08-10T02:51:51.963Z,17.3
2017-08-10T02:52:53.374Z,17.4
2017-08-10T02:54:14.872Z,17.3
2017-08-10T02:55:16.281Z,17.2
2017-08-10T02:56:38.791Z,17.2
2017-08-10T02:57:40.199Z,17.2
2017-08-10T02:59:01.698Z,17.3
2017-08-10T03:00:03.107Z,17.2
2017-08-10T03:01:24.627Z,17.2
2017-08-10T03:02:26.037Z,17.3
2017-08-10T03:03:47.532Z,17.4
2017-08-10T03:04:48.943Z,17.3
2017-08-10T03:06:10.459Z,17.4
2017-08-10T03:07:11.869Z,17.3
2017-08-10T03:08:33.373Z,17.2
2017-08-10T03:09:34.782Z,17.3
2017-08-10T03:10:56.300Z,17.3
2017-08-10T03:11:57.709Z,17.2
2017-08-10T03:13:19.201Z,17.3
2017-08-10T03:14:20.611Z,17.2
2017-08-10T03:15:42.111Z,17.2
2017-08-10T03:16:43.521Z,17.3
2017-08-10T03:18:05.038Z,17.3
2017-08-10T03:19:06.449Z,17.3
2017-08-10T03:20:27.948Z,17.4
2017-08-10T03:21:29.353Z,17.3
2017-08-10T03:22:50.872Z,17.4
2017-08-10T03:23:52.282Z,17.5
2017-08-10T03:25:13.778Z,17.5
2017-08-10T03:26:15.189Z,17.4
2017-08-10T03:27:36.705Z,17.4
2017-08-10T03:28:38.117Z,17.5
2017-08-10T03:29:59.611Z,17.4
2017-08-10T03:31:01.039Z,17.3
2017-08-10T03:32:22.550Z,17.4
2017-08-10T03:33:23.960Z,17.4
2017-08-10T03:34:45.453Z,17.5
2017-08-10T03:35:46.864Z,17.4
2017-08-10T03:37:08.379Z,17.4
2017-08-10T03:38:09.790Z,17.5
2017-08-10T03:39:31.287Z,17.4
2017-08-10T03:40:32.696Z,17.4
2017-08-10T03:41:54.214Z,17.3
2017-08-10T03:42:55.623Z,17.3
2017-08-10T03:44:17.121Z,17.2
2017-08-10T03:45:18.531Z,17.3
2017-08-10T03:46:40.046Z,17.2
2017-08-10T03:47:41.461Z,17.2
2017-08-10T03:49:02.959Z,17.2
2017-08-10T03:50:04.369Z,17.3
2017-08-10T03:51:25.883Z,17.2
2017-08-10T03:52:27.297Z,17.3
2017-08-10T03:53:48.796Z,17.3
2017-08-10T03:54:50.206Z,17.3
2017-08-10T03:56:11.735Z,17.2
2017-08-10T03:57:13.138Z,17.2
2017-08-10T03:58:34.634Z,17.3
2017-08-10T03:59:36.044Z,17.3
2017-08-10T04:00:57.540Z,17.3
2017-08-10T04:01:58.954Z,17.3
2017-08-10T04:03:20.468Z,17.2
2017-08-10T04:04:21.881Z,17.4
2017-08-10T04:05:43.379Z,17.3
2017-08-10T04:06:44.791Z,17.4
2017-08-10T04:08:06.317Z,17.4
2017-08-10T04:09:07.727Z,17.4
2017-08-10T04:10:29.228Z,17.6
2017-08-10T04:11:30.641Z,17.6
2017-08-10T04:12:52.160Z,17.7
2017-08-10T04:13:53.576Z,17.7
2017-08-10T04:15:15.072Z,17.7
2017-08-10T04:16:16.484Z,17.7
2017-08-10T04:17:38.007Z,17.6
2017-08-10T04:18:39.423Z,17.6
2017-08-10T04:20:00.923Z,17.7
2017-08-10T04:21:02.336Z,17.6
2017-08-10T04:22:23.854Z,17.7
2017-08-10T04:23:25.268Z,17.6
2017-08-10T04:24:46.771Z,17.6
2017-08-10T04:25:48.183Z,17.5
2017-08-10T04:27:10.696Z,17.5
2017-08-10T04:28:12.107Z,17.4
2017-08-10T04:29:33.607Z,17.4
2017-08-10T04:30:35.018Z,17.4
2017-08-10T04:31:56.535Z,17.5
2017-08-10T04:32:57.955Z,17.5
2017-08-10T04:34:19.450Z,17.5
2017-08-10T04:35:20.862Z,17.4
2017-08-10T04:36:42.381Z,17.5
2017-08-10T04:37:43.807Z,17.3
2017-08-10T04:39:05.298Z,17.3
2017-08-10T04:40:06.712Z,17.3
2017-08-10T04:41:28.235Z,17.4
2017-08-10T04:42:29.650Z,17.3
2017-08-10T04:43:51.150Z,17.4
2017-08-10T04:44:52.562Z,17.4
2017-08-10T04:46:14.556Z,17.5
2017-08-10T07:00:34.778Z,19.8
2017-08-10T07:01:36.196Z,19.7
2017-08-10T07:02:57.718Z,19.8
2017-08-10T07:03:59.134Z,19.7
2017-08-10T07:05:20.641Z,19.7
2017-08-10T07:06:22.058Z,19.7
2017-08-10T07:07:43.579Z,19.8
2017-08-10T07:08:44.995Z,19.7
2017-08-10T07:10:06.663Z,19.7
2017-08-10T07:11:08.084Z,19.7
2017-08-10T07:12:29.609Z,19.7
2017-08-10T07:13:31.025Z,19.7
2017-08-10T07:14:52.528Z,19.7
2017-08-10T07:15:53.945Z,19.7
2017-08-10T07:17:15.471Z,19.8
2017-08-10T07:18:16.887Z,19.8
2017-08-10T07:19:38.393Z,19.9
2017-08-10T07:20:39.809Z,20.0
2017-08-10T07:22:01.311Z,20.0
2017-08-10T07:23:02.726Z,20.0
2017-08-10T07:24:24.248Z,20.1
2017-08-10T07:25:25.666Z,20.1
2017-08-10T07:26:47.173Z,20.1
2017-08-10T07:27:48.590Z,20.2
2017-08-10T07:29:10.115Z,20.3
2017-08-10T07:30:11.533Z,20.3
2017-08-10T07:31:33.039Z,20.3
2017-08-10T07:32:34.455Z,20.3
2017-08-10T07:33:55.980Z,20.3
2017-08-10T07:34:57.397Z,20.4
2017-08-10T07:36:18.904Z,20.4
2017-08-10T07:37:20.322Z,20.5
2017-08-10T07:38:41.847Z,20.6
2017-08-10T07:39:43.263Z,20.6
2017-08-10T07:41:04.767Z,20.7
2017-08-10T07:42:06.184Z,20.7
2017-08-10T07:43:27.728Z,20.7
2017-08-10T07:44:29.130Z,20.8
2017-08-10T07:45:50.637Z,20.7
2017-08-10T07:46:52.056Z,20.8
2017-08-10T07:48:13.581Z,20.7
2017-08-10T07:49:14.997Z,20.7
2017-08-10T07:50:36.506Z,20.8
2017-08-10T07:51:37.920Z,20.9
2017-08-10T07:53:00.443Z,20.9
2017-08-10T07:54:01.858Z,20.9
2017-08-10T07:55:23.362Z,21.2
2017-08-10T07:56:24.780Z,21.2
2017-08-10T07:57:46.306Z,21.2
2017-08-10T07:58:47.724Z,21.3
2017-08-10T08:00:09.231Z,21.5
2017-08-10T08:01:10.651Z,21.5
2017-08-10T08:02:32.310Z,21.5
2017-08-10T08:03:33.728Z,21.5
2017-08-10T08:04:55.235Z,21.7
2017-08-10T08:05:56.654Z,21.7
2017-08-10T08:07:18.166Z,21.8
2017-08-10T08:08:19.584Z,21.8
2017-08-10T08:09:41.107Z,21.9
2017-08-10T08:10:42.526Z,21.8
2017-08-10T08:12:04.033Z,21.9
2017-08-10T08:13:05.450Z,21.9
2017-08-10T08:14:26.980Z,22.0
2017-08-10T08:15:28.398Z,22.0
2017-08-10T08:16:49.913Z,22.0
2017-08-10T08:17:51.330Z,22.2
2017-08-10T08:19:12.861Z,22.2
2017-08-10T08:20:14.280Z,22.2
2017-08-10T08:21:35.793Z,22.2
2017-08-10T08:22:37.211Z,22.2
2017-08-10T08:24:00.233Z,22.2
2017-08-10T08:25:01.654Z,22.2
2017-08-10T08:26:23.166Z,22.2
2017-08-10T08:27:24.584Z,22.2
2017-08-10T08:28:46.115Z,22.3
2017-08-10T08:29:47.535Z,22.3
2017-08-10T08:31:09.048Z,22.3
2017-08-10T08:32:10.467Z,22.3
2017-08-10T08:33:32.500Z,22.3
2017-08-10T08:34:33.921Z,22.3
2017-08-10T08:35:55.437Z,22.3
2017-08-10T08:36:56.856Z,22.3
2017-08-10T08:38:18.387Z,22.2
2017-08-10T08:39:19.806Z,22.2
2017-08-10T08:40:41.323Z,22.2
2017-08-10T08:41:42.734Z,22.2
2017-08-10T08:43:04.259Z,22.2
2017-08-10T08:44:05.680Z,22.3
2017-08-10T08:45:27.186Z,22.2
2017-08-10T08:46:28.604Z,22.3
2017-08-10T08:47:51.133Z,22.3
2017-08-10T08:48:52.552Z,22.3
2017-08-10T08:50:14.278Z,22.4
2017-08-10T08:51:15.698Z,22.4
2017-08-10T08:52:37.209Z,22.4
2017-08-10T08:53:38.629Z,22.6
2017-08-10T08:55:00.344Z,22.7
2017-08-10T08:56:01.766Z,22.9
2017-08-10T08:57:23.275Z,22.8
2017-08-10T08:58:24.710Z,22.8
2017-08-10T08:59:46.226Z,22.9
2017-08-10T09:00:47.645Z,22.9
2017-08-10T09:02:09.158Z,23.0
2017-08-10T09:03:10.586Z,22.9
2017-08-10T09:04:32.115Z,22.9
2017-08-10T09:05:33.534Z,22.9
2017-08-10T09:06:55.048Z,22.9
2017-08-10T09:07:56.469Z,22.9
2017-08-10T09:09:18.002Z,22.9
2017-08-10T09:10:19.419Z,23.0
2017-08-10T09:11:40.932Z,23.0
2017-08-10T09:12:42.351Z,23.2
2017-08-10T09:14:03.886Z,23.2
2017-08-10T09:15:05.307Z,23.2
2017-08-10T09:16:26.823Z,23.3
2017-08-10T09:17:28.243Z,23.3
2017-08-10T09:18:50.125Z,23.6
2017-08-10T09:19:53.470Z,23.5
2017-08-10T09:21:17.436Z,23.8
2017-08-10T09:49:50.028Z,24.7
2017-08-10T09:50:51.451Z,24.8
2017-08-10T09:52:12.962Z,24.9
2017-08-10T09:53:14.382Z,24.9
2017-08-10T09:54:35.913Z,24.8
2017-08-10T09:55:37.333Z,24.8
2017-08-10T09:56:58.851Z,24.5
2017-08-10T09:58:00.272Z,24.4
2017-08-10T09:59:21.807Z,24.5
2017-08-10T10:00:23.226Z,24.6
2017-08-10T10:01:44.738Z,24.7
2017-08-10T10:02:46.161Z,24.7
2017-08-10T10:04:07.690Z,24.8
2017-08-10T10:05:09.114Z,24.9
2017-08-10T10:06:30.628Z,25.1
2017-08-10T10:07:32.054Z,25.2
2017-08-10T10:08:53.602Z,25.3
2017-08-10T10:10:34.492Z,25.4
2017-08-10T10:12:15.379Z,25.8
2017-08-10T10:13:16.806Z,25.8
2017-08-10T10:14:38.339Z,26.0
2017-08-10T10:15:39.761Z,26.0
2017-08-10T10:17:01.279Z,26.0
2017-08-10T10:18:02.701Z,26.2
2017-08-10T10:19:24.232Z,26.5
2017-08-10T10:20:25.656Z,26.5
2017-08-10T10:21:47.174Z,26.6
2017-08-10T10:22:48.596Z,26.7
2017-08-10T10:24:10.127Z,26.8
2017-08-10T10:25:11.552Z,26.7
2017-08-10T10:26:33.070Z,26.7
2017-08-10T10:27:34.489Z,26.7
2017-08-10T10:28:56.023Z,26.7
2017-08-10T10:29:57.445Z,26.6
2017-08-10T10:31:18.960Z,26.1
2017-08-10T10:32:20.381Z,25.9
2017-08-10T10:33:41.913Z,25.6
2017-08-10T10:34:43.337Z,25.5
2017-08-10T10:36:04.859Z,25.5
2017-08-10T10:37:06.284Z,25.6
2017-08-10T10:38:27.822Z,25.4
2017-08-10T10:39:29.243Z,25.4
2017-08-10T10:40:50.760Z,25.4
2017-08-10T10:41:52.182Z,25.1
2017-08-10T10:43:13.910Z,25.1
2017-08-10T10:44:15.329Z,25.1
2017-08-10T10:45:37.062Z,25.0
2017-08-10T10:46:38.483Z,24.9
2017-08-10T10:47:59.999Z,24.7
2017-08-10T10:49:01.420Z,24.8
2017-08-10T10:50:22.952Z,24.8
2017-08-10T10:51:24.375Z,24.7
2017-08-10T10:52:45.889Z,24.8
2017-08-10T10:53:47.311Z,24.8
2017-08-10T10:55:08.840Z,24.8
2017-08-10T10:56:10.263Z,24.8
2017-08-10T10:57:31.783Z,24.9
2017-08-10T10:58:33.203Z,24.9
2017-08-10T10:59:54.741Z,25.1
2017-08-10T11:00:56.163Z,25.2
2017-08-10T11:02:18.671Z,25.1
2017-08-10T11:03:20.096Z,25.2
2017-08-10T11:04:41.626Z,25.4
2017-08-10T11:05:43.048Z,25.3
2017-08-10T11:07:04.557Z,25.1
2017-08-10T11:08:05.979Z,25.1
2017-08-10T11:09:27.508Z,25.1
2017-08-10T11:10:28.930Z,25.1
2017-08-10T11:11:50.441Z,25.0
2017-08-10T11:12:52.097Z,25.1
2017-08-10T11:14:13.635Z,25.0
2017-08-10T11:15:15.211Z,24.9
2017-08-10T11:16:37.082Z,24.9
2017-08-10T11:17:38.508Z,24.9
2017-08-10T11:19:00.292Z,25.0
2017-08-10T11:20:01.722Z,25.0
2017-08-10T11:21:23.240Z,25.1
2017-08-10T11:22:24.659Z,25.0
2017-08-10T11:23:46.194Z,25.1
2017-08-10T11:24:47.614Z,25.1
2017-08-10T11:26:09.609Z,24.9
2017-08-10T11:27:10.996Z,24.8
2017-08-10T11:28:32.538Z,24.9
2017-08-10T11:29:33.958Z,25.1
2017-08-10T11:30:55.477Z,25.2
2017-08-10T11:31:56.898Z,25.3
2017-08-10T11:33:18.415Z,25.3
2017-08-10T11:34:19.839Z,25.3
2017-08-10T11:35:41.375Z,25.4
2017-08-10T11:36:42.794Z,25.4
2017-08-10T11:38:04.320Z,25.6
2017-08-10T11:39:05.747Z,25.6
2017-08-10T11:40:27.273Z,25.8
2017-08-10T11:41:28.722Z,25.9
2017-08-10T11:42:51.213Z,26.1
2017-08-10T11:43:52.635Z,26.0
2017-08-10T11:45:14.195Z,25.9
2017-08-10T11:46:15.619Z,25.9
2017-08-10T11:47:37.129Z,26.0
2017-08-10T11:48:38.554Z,26.0
2017-08-10T11:50:00.098Z,26.1
2017-08-10T11:51:01.523Z,26.1
2017-08-10T11:52:24.230Z,26.0
2017-08-10T11:53:25.652Z,26.0
2017-08-10T11:54:47.184Z,26.1
2017-08-10T11:55:48.606Z,26.0
2017-08-10T11:57:10.120Z,26.0
2017-08-10T11:58:11.546Z,25.9
2017-08-10T11:59:33.075Z,25.9
2017-08-10T12:00:34.501Z,25.7
2017-08-10T12:01:56.014Z,25.8
2017-08-10T12:03:36.922Z,25.9
2017-08-10T12:04:38.379Z,25.8
2017-08-10T12:06:01.089Z,25.7
2017-08-10T12:07:02.507Z,25.7
2017-08-10T12:08:24.030Z,25.7
2017-08-10T12:09:25.452Z,25.8
2017-08-10T12:10:47.472Z,25.7
2017-08-10T12:11:48.899Z,25.7
2017-08-10T12:13:10.586Z,25.9
2017-08-10T12:14:12.012Z,25.8
2017-08-10T12:15:33.548Z,25.9
2017-08-10T12:16:34.968Z,25.9
2017-08-10T12:17:56.487Z,25.8
2017-08-10T12:18:57.912Z,25.8
2017-08-10T12:20:19.443Z,25.9
2017-08-10T12:21:20.864Z,25.9
2017-08-10T12:22:42.375Z,26.0
2017-08-10T12:23:44.087Z,26.0
2017-08-10T12:25:05.606Z,26.1
2017-08-10T12:26:07.028Z,26.1
2017-08-10T12:27:28.548Z,26.1
2017-08-10T12:28:29.969Z,26.1
2017-08-10T12:29:51.506Z,26.1
2017-08-10T12:30:52.929Z,25.9
2017-08-10T12:32:14.607Z,25.7
2017-08-10T12:33:16.031Z,25.6
2017-08-10T12:34:37.561Z,25.5
2017-08-10T12:35:38.985Z,25.6
2017-08-10T12:37:00.503Z,25.6
2017-08-10T12:38:01.922Z,25.7
2017-08-10T12:39:23.456Z,25.9
2017-08-10T12:40:24.880Z,25.9
2017-08-10T12:41:46.416Z,25.9
2017-08-10T12:42:47.838Z,26.0
2017-08-10T12:44:09.376Z,26.0
2017-08-10T12:45:10.798Z,25.9
2017-08-10T12:46:32.312Z,25.7
2017-08-10T12:47:33.737Z,25.7
2017-08-10T12:48:55.269Z,25.8
2017-08-10T12:49:56.697Z,25.8
2017-08-10T12:51:18.216Z,25.8
2017-08-10T12:52:19.638Z,25.8
2017-08-10T12:53:41.160Z,25.9
2017-08-10T12:54:42.583Z,25.9
2017-08-10T12:56:04.114Z,26.0
2017-08-10T12:57:05.534Z,26.0
2017-08-10T12:58:27.046Z,26.1
2017-08-10T12:59:28.485Z,25.9
2017-08-10T13:00:50.013Z,25.8
2017-08-10T13:01:51.436Z,25.7
2017-08-10T13:03:12.948Z,25.9
2017-08-10T13:04:14.372Z,25.8
2017-08-10T13:05:35.920Z,25.9
2017-08-10T13:06:37.814Z,25.9
2017-08-10T13:07:59.308Z,26.0
2017-08-10T13:09:01.757Z,26.1
2017-08-10T13:10:23.291Z,26.1
2017-08-10T13:11:24.714Z,26.1
2017-08-10T13:12:46.225Z,26.2
2017-08-10T13:13:47.651Z,26.2
2017-08-10T13:15:10.585Z,26.3
2017-08-10T13:16:11.894Z,26.2
2017-08-10T13:17:33.398Z,26.1
2017-08-10T13:18:34.819Z,26.1
2017-08-10T13:19:56.364Z,26.1
2017-08-10T13:21:37.251Z,26.0
2017-08-10T13:23:18.138Z,25.9
2017-08-10T13:24:19.559Z,25.9
2017-08-10T13:25:41.605Z,25.8
2017-08-10T13:26:43.002Z,25.7
2017-08-10T13:28:04.514Z,25.7
2017-08-10T13:29:05.933Z,25.7
2017-08-10T13:30:27.468Z,25.5
2017-08-10T13:31:28.888Z,25.5
2017-08-10T13:32:50.406Z,25.4
2017-08-10T13:33:51.821Z,25.3
2017-08-10T13:35:13.485Z,25.3
2017-08-10T13:36:14.903Z,25.3
2017-08-10T13:37:36.415Z,25.2
2017-08-10T13:38:37.836Z,25.2
2017-08-10T13:39:59.372Z,25.1
2017-08-10T13:41:00.792Z,25.1
2017-08-10T13:42:22.537Z,25.0
2017-08-10T13:43:23.959Z,24.9
2017-08-10T13:44:45.493Z,24.9
2017-08-10T13:45:46.916Z,25.0
2017-08-10T13:47:08.428Z,25.1
2017-08-10T13:48:09.848Z,25.1
2017-08-10T13:49:31.588Z,25.0
2017-08-10T13:50:33.011Z,25.0
2017-08-10T13:51:54.541Z,24.9
2017-08-10T13:52:55.962Z,25.0
2017-08-10T13:54:17.475Z,25.1
2017-08-10T13:55:18.895Z,24.9
2017-08-10T13:56:40.424Z,24.9
2017-08-10T13:57:41.845Z,24.8
2017-08-10T13:59:03.357Z,24.8
2017-08-10T14:00:04.791Z,24.8
2017-08-10T14:01:26.307Z,24.8
2017-08-10T14:02:27.732Z,24.8
2017-08-10T14:03:49.240Z,24.6
2017-08-10T14:04:50.660Z,24.7
2017-08-10T14:06:12.189Z,24.7
2017-08-10T14:07:13.610Z,24.7
2017-08-10T14:08:35.120Z,24.6
2017-08-10T14:09:36.540Z,24.6
2017-08-10T14:10:58.069Z,24.6
2017-08-10T14:11:59.490Z,24.6
2017-08-10T14:13:21.006Z,24.6
2017-08-10T14:14:22.422Z,24.6
2017-08-10T14:15:43.966Z,24.5
2017-08-10T14:16:45.388Z,24.7
2017-08-10T14:18:06.985Z,24.7
2017-08-10T14:19:08.412Z,24.8
2017-08-10T14:20:29.942Z,24.8
2017-08-10T14:21:31.378Z,24.8
2017-08-10T14:22:52.874Z,24.8
2017-08-10T14:23:54.293Z,24.8
2017-08-10T14:25:15.824Z,24.7
2017-08-10T14:26:17.244Z,24.8
2017-08-10T14:27:38.756Z,24.8
2017-08-10T14:28:41.284Z,24.8
2017-08-10T14:30:02.748Z,24.8
2017-08-10T14:31:04.634Z,24.8
2017-08-10T14:32:26.160Z,24.9
2017-08-10T14:33:27.584Z,24.9
2017-08-10T14:34:49.100Z,24.9
2017-08-10T14:35:50.521Z,24.9
2017-08-10T14:37:12.051Z,24.9
2017-08-10T14:38:13.474Z,24.9
2017-08-10T14:39:35.196Z,24.7
2017-08-10T14:40:36.616Z,24.7
2017-08-10T14:41:58.346Z,24.8
2017-08-10T14:42:59.766Z,24.9
2017-08-10T14:44:21.273Z,24.8
2017-08-10T14:45:22.693Z,24.8
2017-08-10T14:46:44.242Z,24.9
2017-08-10T14:47:45.663Z,24.9
2017-08-10T14:49:07.175Z,24.8
2017-08-10T14:50:08.595Z,24.8
2017-08-10T14:51:30.128Z,24.8
2017-08-10T14:52:31.551Z,24.8
2017-08-10T14:53:53.062Z,24.9
2017-08-10T14:54:54.482Z,25.0
2017-08-10T14:56:16.020Z,25.0
2017-08-10T14:57:17.439Z,25.0
2017-08-10T14:58:38.953Z,25.1
2017-08-10T14:59:40.397Z,25.0
2017-08-10T15:01:01.919Z,24.9
2017-08-10T15:02:03.342Z,24.8
2017-08-10T15:03:24.861Z,24.8
2017-08-10T15:04:26.278Z,24.8
2017-08-10T15:05:47.805Z,24.8
2017-08-10T15:06:49.228Z,24.8
2017-08-10T15:08:10.739Z,24.9
2017-08-10T15:09:12.160Z,24.7
2017-08-10T15:10:33.690Z,24.6
2017-08-10T15:11:35.110Z,24.6
2017-08-10T15:12:56.624Z,24.6
2017-08-10T15:13:58.043Z,24.6
2017-08-10T15:15:19.556Z,24.5
2017-08-10T15:16:20.978Z,24.6
2017-08-10T15:17:42.626Z,24.5
2017-08-10T15:18:44.070Z,24.4
2017-08-10T15:20:05.628Z,24.4
2017-08-10T15:21:07.042Z,24.4
2017-08-10T15:22:28.576Z,24.5
2017-08-10T15:23:29.996Z,24.5
2017-08-10T15:24:51.511Z,24.5
2017-08-10T15:25:52.930Z,24.6
2017-08-10T15:27:14.456Z,24.6
2017-08-10T15:28:15.878Z,24.5
2017-08-10T15:29:37.386Z,24.5
2017-08-10T15:30:38.806Z,24.6
2017-08-10T15:32:00.518Z,24.5
2017-08-10T15:33:01.941Z,24.6
2017-08-10T15:34:23.461Z,24.6
2017-08-10T15:35:24.924Z,24.6
2017-08-10T15:36:46.460Z,24.6
2017-08-10T15:37:48.148Z,24.7
2017-08-10T15:39:09.910Z,24.6
2017-08-10T15:40:11.333Z,24.6
2017-08-10T15:41:32.972Z,24.6
2017-08-10T15:43:13.864Z,24.5
2017-08-10T15:44:15.282Z,24.5
2017-08-10T15:45:36.839Z,24.4
2017-08-10T15:46:38.650Z,24.4
2017-08-10T15:48:01.406Z,24.2
2017-08-10T15:49:02.833Z,24.2
2017-08-10T15:50:24.366Z,24.1
2017-08-10T15:51:25.791Z,24.0
2017-08-10T15:52:47.324Z,24.1
2017-08-10T15:53:48.746Z,24.2
2017-08-10T15:55:10.258Z,24.3
2017-08-10T15:56:12.570Z,24.3
2017-08-10T15:57:34.140Z,24.3
2017-08-10T15:58:35.559Z,24.2
2017-08-10T15:59:57.076Z,24.3
2017-08-10T16:00:58.500Z,24.3
2017-08-10T16:02:20.027Z,24.3
2017-08-10T16:03:21.446Z,24.4
2017-08-10T16:04:42.957Z,24.4
2017-08-10T16:05:44.416Z,24.4
2017-08-10T16:07:06.978Z,24.4
2017-08-10T16:08:08.400Z,24.4
2017-08-10T16:09:29.950Z,24.3
2017-08-10T16:10:31.374Z,24.3
2017-08-10T16:11:52.909Z,24.2
2017-08-10T16:12:54.332Z,24.2
2017-08-10T16:14:15.845Z,24.2
2017-08-10T16:15:17.275Z,24.3
2017-08-10T16:16:38.844Z,24.2
2017-08-10T16:17:40.264Z,24.3
2017-08-10T16:19:02.769Z,24.3
2017-08-10T16:20:04.218Z,24.2
2017-08-10T16:21:25.759Z,24.2
2017-08-10T16:23:06.639Z,24.1
2017-08-10T16:24:08.058Z,24.1
2017-08-10T16:25:29.693Z,23.9
2017-08-10T16:26:31.112Z,23.8
2017-08-10T16:27:52.681Z,23.8
2017-08-10T16:28:54.094Z,23.7
2017-08-10T16:30:15.635Z,23.7
2017-08-10T16:31:17.110Z,23.7
2017-08-10T16:32:38.898Z,23.5
2017-08-10T16:33:40.315Z,23.5
2017-08-10T16:35:01.823Z,23.4
2017-08-10T16:36:03.245Z,23.4
2017-08-10T16:37:24.776Z,23.5
2017-08-10T16:38:26.198Z,23.3
2017-08-10T16:39:47.714Z,23.4
2017-08-10T16:40:49.133Z,23.5
2017-08-10T16:42:10.850Z,23.6
2017-08-10T16:43:12.269Z,23.6
2017-08-10T16:44:33.975Z,23.7
2017-08-10T16:45:35.512Z,23.7
2017-08-10T16:46:57.036Z,23.7
2017-08-10T16:47:58.467Z,23.6
2017-08-10T16:49:20.001Z,23.6
2017-08-10T16:50:21.419Z,23.6
2017-08-10T16:51:42.955Z,23.6
2017-08-10T16:52:44.375Z,23.6
2017-08-10T16:54:05.890Z,23.6
2017-08-10T16:55:07.307Z,23.6
2017-08-10T16:56:28.816Z,23.6
2017-08-10T16:57:30.236Z,23.7
2017-08-10T16:58:51.763Z,23.6
2017-08-10T16:59:53.183Z,23.5
2017-08-10T17:01:14.691Z,23.5
2017-08-10T17:02:16.116Z,23.4
2017-08-10T17:03:37.646Z,23.4
2017-08-10T17:04:39.101Z,23.5
2017-08-10T17:06:00.609Z,23.5
2017-08-10T17:07:02.027Z,23.4
2017-08-10T17:08:23.555Z,23.4
2017-08-10T17:09:24.975Z,23.5
2017-08-10T17:10:46.485Z,23.5
2017-08-10T17:11:48.029Z,23.3
2017-08-10T17:13:15.924Z,23.1
2017-08-10T17:14:17.373Z,23.1
2017-08-10T17:15:38.993Z,23.0
2017-08-10T17:16:40.410Z,22.8
2017-08-10T17:18:01.952Z,22.5
2017-08-10T17:19:03.389Z,22.5
2017-08-10T17:20:24.950Z,22.5
2017-08-10T17:21:26.591Z,22.3
2017-08-10T17:22:48.250Z,22.2
2017-08-10T17:23:49.672Z,22.2
2017-08-10T17:25:11.411Z,22.2
2017-08-10T17:26:12.835Z,21.9
2017-08-10T17:27:34.502Z,21.6
2017-08-10T17:28:35.919Z,21.4
2017-08-10T17:29:57.647Z,21.3
2017-08-10T17:30:59.067Z,21.1
2017-08-10T17:32:20.604Z,21.0
2017-08-10T17:33:22.020Z,20.8
2017-08-10T17:34:43.931Z,20.8
2017-08-10T17:35:45.367Z,20.7
2017-08-10T17:37:06.925Z,20.6
2017-08-10T17:38:08.321Z,20.4
2017-08-10T17:39:29.825Z,20.5
2017-08-10T17:40:31.320Z,20.4
2017-08-10T17:41:54.001Z,20.5
2017-08-10T17:42:55.449Z,20.4
2017-08-10T17:44:16.987Z,20.3
2017-08-10T17:45:18.406Z,20.2
2017-08-10T17:46:39.941Z,20.1
2017-08-10T17:47:41.357Z,20.0
2017-08-10T17:49:02.882Z,20.0
2017-08-10T17:50:04.370Z,20.0
2017-08-10T17:51:25.895Z,19.9
2017-08-10T17:52:27.310Z,19.9
2017-08-10T17:53:48.852Z,20.0
2017-08-10T17:54:50.267Z,20.0
2017-08-10T17:56:12.264Z,20.0
2017-08-10T17:57:13.966Z,19.9
2017-08-10T17:58:35.497Z,19.7
2017-08-10T17:59:36.915Z,19.7
2017-08-10T18:01:00.317Z,19.7
2017-08-10T18:02:01.577Z,19.9
2017-08-10T18:03:23.106Z,19.8
2017-08-10T18:04:24.522Z,19.7
2017-08-10T18:05:46.033Z,19.9
2017-08-10T18:06:47.570Z,19.9
2017-08-10T18:08:09.102Z,20.0
2017-08-10T18:09:10.882Z,20.0
2017-08-10T18:10:32.560Z,20.1
2017-08-10T18:11:34.594Z,20.0
2017-08-10T18:12:56.130Z,19.9
2017-08-10T18:13:57.546Z,20.0
2017-08-10T18:15:22.820Z,20.0
2017-08-10T18:16:24.239Z,20.0
2017-08-10T18:17:45.774Z,19.9
2017-08-10T18:18:47.191Z,20.0
2017-08-10T18:20:08.700Z,19.9
2017-08-10T18:21:10.115Z,19.9
2017-08-10T18:22:31.659Z,20.0
2017-08-10T18:23:33.076Z,20.0
2017-08-10T18:24:54.609Z,20.0
2017-08-10T18:26:35.519Z,20.0
2017-08-10T18:28:16.409Z,20.0
2017-08-10T18:29:17.823Z,20.1
2017-08-10T18:30:39.435Z,20.2
2017-08-10T18:31:40.936Z,20.1
2017-08-10T18:33:02.449Z,20.0
2017-08-10T18:34:03.863Z,20.0
2017-08-10T18:35:25.378Z,20.0
2017-08-10T18:36:27.710Z,20.0